sensor_id;sensor_type;location;lat;lon;timestamp;pressure;altitude;pressure_sealevel;temperature;humidity
50977;BME280;36992;48.200;12.418;2023-05-10T00:01:02;96086.41;;;19.30;48.12
50977;BME280;36992;48.200;12.418;2023-05-10T00:03:29;96087.94;;;19.27;47.70
50977;BME280;36992;48.200;12.418;2023-05-10T00:05:55;96085.56;;;19.25;47.23
50977;BME280;36992;48.200;12.418;2023-05-10T00:08:22;96088.28;;;19.25;47.42
50977;BME280;36992;48.200;12.418;2023-05-10T00:10:48;96078.88;;;19.23;48.04
50977;BME280;36992;48.200;12.418;2023-05-10T00:13:16;96083.97;;;19.24;47.81
50977;BME280;36992;48.200;12.418;2023-05-10T00:15:43;96079.25;;;19.21;48.61
50977;BME280;36992;48.200;12.418;2023-05-10T00:18:09;96084.28;;;19.19;48.82
50977;BME280;36992;48.200;12.418;2023-05-10T00:20:36;96082.28;;;19.16;49.79
50977;BME280;36992;48.200;12.418;2023-05-10T00:23:02;96077.53;;;19.13;49.42
50977;BME280;36992;48.200;12.418;2023-05-10T00:25:29;96086.13;;;19.11;49.63
50977;BME280;36992;48.200;12.418;2023-05-10T00:27:55;96081.38;;;19.08;49.66
50977;BME280;36992;48.200;12.418;2023-05-10T00:30:24;96085.69;;;19.09;48.04
50977;BME280;36992;48.200;12.418;2023-05-10T00:32:50;96085.63;;;19.06;50.02
50977;BME280;36992;48.200;12.418;2023-05-10T00:35:16;96085.63;;;19.06;49.03
50977;BME280;36992;48.200;12.418;2023-05-10T00:37:43;96084.84;;;19.05;50.08
50977;BME280;36992;48.200;12.418;2023-05-10T00:40:11;96077.00;;;19.04;50.76
50977;BME280;36992;48.200;12.418;2023-05-10T00:42:37;96074.63;;;19.02;50.86
50977;BME280;36992;48.200;12.418;2023-05-10T00:45:05;96082.38;;;19.00;50.33
50977;BME280;36992;48.200;12.418;2023-05-10T00:47:33;96073.41;;;18.99;50.17
50977;BME280;36992;48.200;12.418;2023-05-10T00:50:00;96076.88;;;18.96;50.28
50977;BME280;36992;48.200;12.418;2023-05-10T00:52:27;96077.22;;;18.95;48.90
50977;BME280;36992;48.200;12.418;2023-05-10T00:54:54;96077.22;;;18.95;50.27
50977;BME280;36992;48.200;12.418;2023-05-10T00:57:21;96081.16;;;18.97;49.88
50977;BME280;36992;48.200;12.418;2023-05-10T00:59:48;96083.91;;;18.97;49.17
50977;BME280;36992;48.200;12.418;2023-05-10T01:02:15;96082.75;;;18.98;48.35
50977;BME280;36992;48.200;12.418;2023-05-10T01:04:43;96083.63;;;19.03;49.13
50977;BME280;36992;48.200;12.418;2023-05-10T01:07:09;96092.22;;;19.05;49.27
50977;BME280;36992;48.200;12.418;2023-05-10T01:09:36;96085.63;;;19.06;49.76
50977;BME280;36992;48.200;12.418;2023-05-10T01:12:03;96090.38;;;19.09;49.49
50977;BME280;36992;48.200;12.418;2023-05-10T01:14:32;96095.44;;;19.10;49.53
50977;BME280;36992;48.200;12.418;2023-05-10T01:17:00;96086.91;;;19.12;50.48
50977;BME280;36992;48.200;12.418;2023-05-10T01:19:28;96088.47;;;19.13;50.41
50977;BME280;36992;48.200;12.418;2023-05-10T01:22:04;96096.34;;;19.18;47.63
50977;BME280;36992;48.200;12.418;2023-05-10T01:24:58;96091.75;;;19.22;47.70
50977;BME280;36992;48.200;12.418;2023-05-10T01:27:41;96088.59;;;19.20;47.57
50977;BME280;36992;48.200;12.418;2023-05-10T01:33:34;96089.03;;;19.22;48.64
50977;BME280;36992;48.200;12.418;2023-05-10T01:36:05;96095.66;;;19.21;47.79
50977;BME280;36992;48.200;12.418;2023-05-10T01:38:42;96090.97;;;19.22;47.38
50977;BME280;36992;48.200;12.418;2023-05-10T01:41:14;96087.06;;;19.23;48.71
50977;BME280;36992;48.200;12.418;2023-05-10T01:43:50;96084.34;;;19.23;49.27
50977;BME280;36992;48.200;12.418;2023-05-10T01:46:26;96093.34;;;19.23;48.85
50977;BME280;36992;48.200;12.418;2023-05-10T01:48:57;96087.88;;;19.23;50.75
50977;BME280;36992;48.200;12.418;2023-05-10T01:51:27;96087.00;;;19.19;50.97
50977;BME280;36992;48.200;12.418;2023-05-10T01:53:59;96088.59;;;19.20;50.41
50977;BME280;36992;48.200;12.418;2023-05-10T01:56:29;96082.28;;;19.16;50.05
50977;BME280;36992;48.200;12.418;2023-05-10T01:58:58;96086.53;;;19.13;50.11
50977;BME280;36992;48.200;12.418;2023-05-10T02:01:26;96088.41;;;19.09;50.50
50977;BME280;36992;48.200;12.418;2023-05-10T02:03:55;96090.03;;;19.14;49.65
50977;BME280;36992;48.200;12.418;2023-05-10T02:06:24;96089.97;;;19.10;50.60
50977;BME280;36992;48.200;12.418;2023-05-10T02:08:52;96090.78;;;19.11;50.86
50977;BME280;36992;48.200;12.418;2023-05-10T02:11:20;96089.22;;;19.10;50.57
50977;BME280;36992;48.200;12.418;2023-05-10T02:13:48;96088.41;;;19.09;51.31
50977;BME280;36992;48.200;12.418;2023-05-10T02:16:16;96095.81;;;19.09;50.47
50977;BME280;36992;48.200;12.418;2023-05-10T02:18:43;96095.38;;;19.07;49.93
50977;BME280;36992;48.200;12.418;2023-05-10T02:21:13;96089.22;;;19.10;50.43
50977;BME280;36992;48.200;12.418;2023-05-10T02:23:41;96093.81;;;19.06;50.13
50977;BME280;36992;48.200;12.418;2023-05-10T02:26:09;96092.22;;;19.05;49.36
50977;BME280;36992;48.200;12.418;2023-05-10T02:28:37;96091.44;;;19.04;50.33
50977;BME280;36992;48.200;12.418;2023-05-10T02:31:05;96094.53;;;19.03;50.96
50977;BME280;36992;48.200;12.418;2023-05-10T02:33:32;96089.09;;;19.03;50.37
50977;BME280;36992;48.200;12.418;2023-05-10T02:36:01;96089.09;;;19.03;51.12
50977;BME280;36992;48.200;12.418;2023-05-10T02:38:31;96090.66;;;19.04;50.03
50977;BME280;36992;48.200;12.418;2023-05-10T02:40:59;96089.78;;;18.99;50.34
50977;BME280;36992;48.200;12.418;2023-05-10T02:43:26;96088.19;;;18.98;50.65
50977;BME280;36992;48.200;12.418;2023-05-10T02:45:54;96088.19;;;18.98;50.31
50977;BME280;36992;48.200;12.418;2023-05-10T02:48:21;96089.34;;;18.97;51.12
50977;BME280;36992;48.200;12.418;2023-05-10T02:50:48;96093.25;;;18.96;50.42
50977;BME280;36992;48.200;12.418;2023-05-10T02:53:23;96090.56;;;19.00;49.68
50977;BME280;36992;48.200;12.418;2023-05-10T02:55:58;96095.22;;;18.99;50.66
50977;BME280;36992;48.200;12.418;2023-05-10T02:58:25;96094.75;;;18.94;51.38
50977;BME280;36992;48.200;12.418;2023-05-10T03:00:52;96091.22;;;18.93;52.21
50977;BME280;36992;48.200;12.418;2023-05-10T03:03:19;96093.94;;;18.93;50.48
50977;BME280;36992;48.200;12.418;2023-05-10T03:05:46;96096.69;;;18.93;51.11
50977;BME280;36992;48.200;12.418;2023-05-10T03:08:12;96097.84;;;18.92;50.38
50977;BME280;36992;48.200;12.418;2023-05-10T03:10:47;96095.97;;;18.96;50.33
50977;BME280;36992;48.200;12.418;2023-05-10T03:13:27;96091.63;;;18.95;50.58
50977;BME280;36992;48.200;12.418;2023-05-10T03:15:59;96099.81;;;18.95;49.12
50977;BME280;36992;48.200;12.418;2023-05-10T03:18:34;96094.38;;;18.95;50.51
50977;BME280;36992;48.200;12.418;2023-05-10T03:21:04;96109.91;;;18.91;51.17
50977;BME280;36992;48.200;12.418;2023-05-10T03:23:39;96095.09;;;18.92;51.57
50977;BME280;36992;48.200;12.418;2023-05-10T03:26:07;96100.50;;;18.88;51.13
50977;BME280;36992;48.200;12.418;2023-05-10T03:28:36;96102.50;;;18.92;51.24
50977;BME280;36992;48.200;12.418;2023-05-10T03:31:04;96110.63;;;18.88;50.56
50977;BME280;36992;48.200;12.418;2023-05-10T03:33:31;96106.31;;;18.87;51.11
50977;BME280;36992;48.200;12.418;2023-05-10T03:35:58;96107.47;;;18.86;51.38
50977;BME280;36992;48.200;12.418;2023-05-10T03:38:25;96112.91;;;18.86;51.34
50977;BME280;36992;48.200;12.418;2023-05-10T03:40:51;96108.63;;;18.85;50.60
50977;BME280;36992;48.200;12.418;2023-05-10T03:43:18;96109.31;;;18.82;50.74
50977;BME280;36992;48.200;12.418;2023-05-10T03:45:45;96114.44;;;18.83;50.90
50977;BME280;36992;48.200;12.418;2023-05-10T03:48:12;96112.06;;;18.82;51.94
50977;BME280;36992;48.200;12.418;2023-05-10T03:50:39;96111.63;;;18.80;51.62
50977;BME280;36992;48.200;12.418;2023-05-10T03:53:05;96117.09;;;18.80;51.53
50977;BME280;36992;48.200;12.418;2023-05-10T03:55:32;96116.69;;;18.78;52.04
50977;BME280;36992;48.200;12.418;2023-05-10T03:58:01;96116.69;;;18.78;52.31
50977;BME280;36992;48.200;12.418;2023-05-10T04:00:27;96118.94;;;18.76;51.55
50977;BME280;36992;48.200;12.418;2023-05-10T04:02:55;96125.97;;;18.77;52.96
50977;BME280;36992;48.200;12.418;2023-05-10T04:05:21;96124.00;;;18.73;51.75
50977;BME280;36992;48.200;12.418;2023-05-10T04:07:48;96125.16;;;18.72;52.10
50977;BME280;36992;48.200;12.418;2023-05-10T04:10:16;96125.50;;;18.71;51.28
50977;BME280;36992;48.200;12.418;2023-05-10T04:12:43;96117.66;;;18.69;51.68
50977;BME280;36992;48.200;12.418;2023-05-10T04:15:09;96128.56;;;18.69;52.39
50977;BME280;36992;48.200;12.418;2023-05-10T04:17:36;96127.00;;;18.68;51.97
50977;BME280;36992;48.200;12.418;2023-05-10T04:20:05;96132.53;;;18.72;52.07
50977;BME280;36992;48.200;12.418;2023-05-10T04:22:32;96125.44;;;18.67;51.65
50977;BME280;36992;48.200;12.418;2023-05-10T04:24:58;96135.53;;;18.67;52.20
50977;BME280;36992;48.200;12.418;2023-05-10T04:27:25;96137.84;;;18.65;51.13
50977;BME280;36992;48.200;12.418;2023-05-10T04:29:52;96134.31;;;18.64;52.11
50977;BME280;36992;48.200;12.418;2023-05-10T04:32:18;96135.47;;;18.63;52.19
50977;BME280;36992;48.200;12.418;2023-05-10T04:34:45;96135.84;;;18.62;53.67
50977;BME280;36992;48.200;12.418;2023-05-10T04:37:13;96133.91;;;18.62;52.90
50977;BME280;36992;48.200;12.418;2023-05-10T04:39:39;96135.78;;;18.58;51.89
50977;BME280;36992;48.200;12.418;2023-05-10T04:42:06;96138.06;;;18.56;52.24
50977;BME280;36992;48.200;12.418;2023-05-10T04:44:32;96136.47;;;18.55;53.30
50977;BME280;36992;48.200;12.418;2023-05-10T04:46:59;96137.63;;;18.54;52.98
50977;BME280;36992;48.200;12.418;2023-05-10T04:49:26;96144.25;;;18.53;53.22
50977;BME280;36992;48.200;12.418;2023-05-10T04:51:52;96137.22;;;18.52;53.74
50977;BME280;36992;48.200;12.418;2023-05-10T04:54:20;96143.78;;;18.51;52.74
50977;BME280;36992;48.200;12.418;2023-05-10T04:56:47;96146.09;;;18.49;53.70
50977;BME280;36992;48.200;12.418;2023-05-10T04:59:13;96135.91;;;18.45;53.01
50977;BME280;36992;48.200;12.418;2023-05-10T05:01:43;96142.94;;;18.46;52.77
50977;BME280;36992;48.200;12.418;2023-05-10T05:04:09;96150.25;;;18.42;52.95
50977;BME280;36992;48.200;12.418;2023-05-10T05:06:35;96151.75;;;18.40;53.86
50977;BME280;36992;48.200;12.418;2023-05-10T05:09:02;96152.09;;;18.38;53.19
50977;BME280;36992;48.200;12.418;2023-05-10T05:11:30;96156.44;;;18.39;54.52
50977;BME280;36992;48.200;12.418;2023-05-10T05:13:56;96150.09;;;18.35;54.74
50977;BME280;36992;48.200;12.418;2023-05-10T05:16:24;96151.25;;;18.34;53.83
50977;BME280;36992;48.200;12.418;2023-05-10T05:18:50;96150.81;;;18.32;54.19
50977;BME280;36992;48.200;12.418;2023-05-10T05:21:18;96154.69;;;18.31;53.46
50977;BME280;36992;48.200;12.418;2023-05-10T05:23:44;96148.81;;;18.29;55.47
50977;BME280;36992;48.200;12.418;2023-05-10T05:26:11;96151.09;;;18.27;54.92
50977;BME280;36992;48.200;12.418;2023-05-10T05:28:39;96158.84;;;18.25;55.07
50977;BME280;36992;48.200;12.418;2023-05-10T05:31:05;96161.47;;;18.21;54.23
50977;BME280;36992;48.200;12.418;2023-05-10T05:33:32;96159.91;;;18.20;55.94
50977;BME280;36992;48.200;12.418;2023-05-10T05:36:00;96161.41;;;18.17;55.14
50977;BME280;36992;48.200;12.418;2023-05-10T05:38:26;96161.75;;;18.16;55.29
50977;BME280;36992;48.200;12.418;2023-05-10T05:40:53;96162.13;;;18.14;55.33
50977;BME280;36992;48.200;12.418;2023-05-10T05:43:19;96167.59;;;18.14;55.57
50977;BME280;36992;48.200;12.418;2023-05-10T05:45:47;96168.34;;;18.15;55.16
50977;BME280;36992;48.200;12.418;2023-05-10T05:48:14;96164.41;;;18.12;56.55
50977;BME280;36992;48.200;12.418;2023-05-10T05:50:40;96175.31;;;18.12;55.40
50977;BME280;36992;48.200;12.418;2023-05-10T05:53:07;96163.63;;;18.12;55.44
50977;BME280;36992;48.200;12.418;2023-05-10T05:55:35;96165.97;;;18.13;56.24
50977;BME280;36992;48.200;12.418;2023-05-10T05:58:01;96172.22;;;18.14;54.79
50977;BME280;36992;48.200;12.418;2023-05-10T06:00:28;96171.09;;;18.15;55.15
50977;BME280;36992;48.200;12.418;2023-05-10T06:02:56;96177.75;;;18.17;55.36
50977;BME280;36992;48.200;12.418;2023-05-10T06:05:22;96172.66;;;18.16;55.82
50977;BME280;36992;48.200;12.418;2023-05-10T06:07:49;96177.75;;;18.17;56.23
50977;BME280;36992;48.200;12.418;2023-05-10T06:10:15;96178.56;;;18.18;56.76
50977;BME280;36992;48.200;12.418;2023-05-10T06:12:42;96180.50;;;18.17;55.27
50977;BME280;36992;48.200;12.418;2023-05-10T06:15:09;96188.66;;;18.17;55.40
50977;BME280;36992;48.200;12.418;2023-05-10T06:17:36;96185.94;;;18.17;55.96
50977;BME280;36992;48.200;12.418;2023-05-10T06:20:06;96183.63;;;18.19;55.37
50977;BME280;36992;48.200;12.418;2023-05-10T06:22:33;96188.66;;;18.17;55.65
50977;BME280;36992;48.200;12.418;2023-05-10T06:24:59;96184.38;;;18.16;55.89
50977;BME280;36992;48.200;12.418;2023-05-10T06:27:26;96192.13;;;18.14;56.48
50977;BME280;36992;48.200;12.418;2023-05-10T06:29:52;96194.84;;;18.14;55.98
50977;BME280;36992;48.200;12.418;2023-05-10T06:32:19;96202.56;;;18.12;55.94
50977;BME280;36992;48.200;12.418;2023-05-10T06:34:45;96209.50;;;18.10;56.72
50977;BME280;36992;48.200;12.418;2023-05-10T06:37:13;96204.06;;;18.10;56.02
50977;BME280;36992;48.200;12.418;2023-05-10T06:39:39;96210.53;;;18.05;56.93
50977;BME280;36992;48.200;12.418;2023-05-10T06:42:06;96217.06;;;18.00;56.61
50977;BME280;36992;48.200;12.418;2023-05-10T06:44:32;96209.94;;;17.96;56.15
50977;BME280;36992;48.200;12.418;2023-05-10T06:46:59;96215.75;;;17.94;56.19
50977;BME280;36992;48.200;12.418;2023-05-10T06:49:26;96226.56;;;17.90;55.98
50977;BME280;36992;48.200;12.418;2023-05-10T06:51:52;96228.41;;;17.86;56.27
50977;BME280;36992;48.200;12.418;2023-05-10T06:54:20;96226.81;;;17.85;55.54
50977;BME280;36992;48.200;12.418;2023-05-10T06:56:46;96232.44;;;17.76;55.31
50977;BME280;36992;48.200;12.418;2023-05-10T06:59:13;96237.00;;;17.72;55.81
50977;BME280;36992;48.200;12.418;2023-05-10T07:01:40;96236.47;;;17.66;56.13
50977;BME280;36992;48.200;12.418;2023-05-10T07:04:06;96232.44;;;17.60;55.69
50977;BME280;36992;48.200;12.418;2023-05-10T07:06:33;96237.78;;;17.57;55.70
50977;BME280;36992;48.200;12.418;2023-05-10T07:09:00;96236.47;;;17.50;55.29
50977;BME280;36992;48.200;12.418;2023-05-10T07:11:28;96238.38;;;17.50;55.35
50977;BME280;36992;48.200;12.418;2023-05-10T07:13:54;96244.06;;;17.45;56.21
50977;BME280;36992;48.200;12.418;2023-05-10T07:16:21;96246.81;;;17.45;56.05
50977;BME280;36992;48.200;12.418;2023-05-10T07:18:47;96244.44;;;17.43;56.86
50977;BME280;36992;48.200;12.418;2023-05-10T07:21:15;96257.25;;;17.43;56.40
50977;BME280;36992;48.200;12.418;2023-05-10T07:23:41;96260.41;;;17.45;55.88
50977;BME280;36992;48.200;12.418;2023-05-10T07:26:08;96259.72;;;17.48;56.21
50977;BME280;36992;48.200;12.418;2023-05-10T07:28:37;96259.47;;;17.53;56.13
50977;BME280;36992;48.200;12.418;2023-05-10T07:31:04;96258.59;;;17.49;56.18
50977;BME280;36992;48.200;12.418;2023-05-10T07:33:30;96255.19;;;17.52;55.57
50977;BME280;36992;48.200;12.418;2023-05-10T07:35:57;96269.47;;;17.49;55.14
50977;BME280;36992;48.200;12.418;2023-05-10T07:38:23;96259.03;;;17.51;55.29
50977;BME280;36992;48.200;12.418;2023-05-10T07:40:50;96271.78;;;17.47;54.94
50977;BME280;36992;48.200;12.418;2023-05-10T07:43:16;96271.78;;;17.47;55.21
50977;BME280;36992;48.200;12.418;2023-05-10T07:45:44;96282.19;;;17.45;55.00
50977;BME280;36992;48.200;12.418;2023-05-10T07:48:11;96287.53;;;17.41;55.86
50977;BME280;36992;48.200;12.418;2023-05-10T07:50:37;96284.38;;;17.39;55.81
50977;BME280;36992;48.200;12.418;2023-05-10T07:53:04;96281.56;;;17.35;55.36
50977;BME280;36992;48.200;12.418;2023-05-10T07:55:30;96291.56;;;17.31;56.65
50977;BME280;36992;48.200;12.418;2023-05-10T07:57:57;96292.38;;;17.32;55.42
50977;BME280;36992;48.200;12.418;2023-05-10T08:00:26;96306.31;;;17.30;56.15
50977;BME280;36992;48.200;12.418;2023-05-10T08:02:54;96298.94;;;17.31;55.23
50977;BME280;36992;48.200;12.418;2023-05-10T08:05:20;96295.41;;;17.30;56.03
50977;BME280;36992;48.200;12.418;2023-05-10T08:07:47;96305.50;;;17.30;56.40
50977;BME280;36992;48.200;12.418;2023-05-10T08:10:13;96310.84;;;17.26;55.81
50977;BME280;36992;48.200;12.418;2023-05-10T08:12:40;96306.66;;;17.29;55.45
50977;BME280;36992;48.200;12.418;2023-05-10T08:15:07;96307.03;;;17.27;55.75
50977;BME280;36992;48.200;12.418;2023-05-10T08:17:34;96311.31;;;17.28;56.01
50977;BME280;36992;48.200;12.418;2023-05-10T08:20:02;96319.13;;;17.30;54.53
50977;BME280;36992;48.200;12.418;2023-05-10T08:22:29;96314.03;;;17.28;55.58
50977;BME280;36992;48.200;12.418;2023-05-10T08:24:55;96323.34;;;17.27;55.31
50977;BME280;36992;48.200;12.418;2023-05-10T08:27:21;96314.72;;;17.25;55.16
50977;BME280;36992;48.200;12.418;2023-05-10T08:29:48;96320.97;;;17.25;55.71
50977;BME280;36992;48.200;12.418;2023-05-10T08:32:14;96319.72;;;17.23;56.33
50977;BME280;36992;48.200;12.418;2023-05-10T08:34:41;96323.25;;;17.23;55.62
50977;BME280;36992;48.200;12.418;2023-05-10T08:37:09;96323.69;;;17.25;56.33
50977;BME280;36992;48.200;12.418;2023-05-10T08:39:38;96324.84;;;17.24;56.16
50977;BME280;36992;48.200;12.418;2023-05-10T08:42:05;96331.50;;;17.27;56.25
50977;BME280;36992;48.200;12.418;2023-05-10T08:44:35;96321.06;;;17.29;56.34
50977;BME280;36992;48.200;12.418;2023-05-10T08:47:05;96325.03;;;17.32;56.21
50977;BME280;36992;48.200;12.418;2023-05-10T08:49:32;96325.81;;;17.32;56.90
50977;BME280;36992;48.200;12.418;2023-05-10T08:52:03;96328.28;;;17.37;56.03
50977;BME280;36992;48.200;12.418;2023-05-10T08:54:32;96328.38;;;17.41;56.79
50977;BME280;36992;48.200;12.418;2023-05-10T08:56:59;96326.91;;;17.44;57.17
50977;BME280;36992;48.200;12.418;2023-05-10T08:59:27;96325.41;;;17.46;55.63
50977;BME280;36992;48.200;12.418;2023-05-10T09:01:55;96329.81;;;17.51;56.71
50977;BME280;36992;48.200;12.418;2023-05-10T09:04:24;96319.72;;;17.51;55.64
50977;BME280;36992;48.200;12.418;2023-05-10T09:06:50;96322.53;;;17.55;56.59
50977;BME280;36992;48.200;12.418;2023-05-10T09:09:17;96326.50;;;17.58;56.10
50977;BME280;36992;48.200;12.418;2023-05-10T09:11:45;96321.97;;;17.62;55.85
50977;BME280;36992;48.200;12.418;2023-05-10T09:14:12;96323.53;;;17.63;55.10
50977;BME280;36992;48.200;12.418;2023-05-10T09:16:39;96325.91;;;17.64;55.81
50977;BME280;36992;48.200;12.418;2023-05-10T09:19:06;96322.84;;;17.66;55.83
50977;BME280;36992;48.200;12.418;2023-05-10T09:21:34;96326.78;;;17.69;54.41
50977;BME280;36992;48.200;12.418;2023-05-10T09:24:03;96333.13;;;17.73;54.09
50977;BME280;36992;48.200;12.418;2023-05-10T09:26:29;96328.38;;;17.70;54.27
50977;BME280;36992;48.200;12.418;2023-05-10T09:28:58;96318.38;;;17.74;55.20
50977;BME280;36992;48.200;12.418;2023-05-10T09:31:43;96324.00;;;17.81;53.91
50977;BME280;36992;48.200;12.418;2023-05-10T09:34:10;96320.84;;;17.79;55.12
50977;BME280;36992;48.200;12.418;2023-05-10T09:36:36;96321.28;;;17.81;53.84
50977;BME280;36992;48.200;12.418;2023-05-10T09:39:03;96320.13;;;17.82;54.27
50977;BME280;36992;48.200;12.418;2023-05-10T09:41:29;96317.06;;;17.84;54.54
50977;BME280;36992;48.200;12.418;2023-05-10T09:43:57;96320.34;;;17.89;54.31
50977;BME280;36992;48.200;12.418;2023-05-10T09:46:23;96315.31;;;17.91;54.28
50977;BME280;36992;48.200;12.418;2023-05-10T09:48:51;96315.84;;;17.97;53.74
50977;BME280;36992;48.200;12.418;2023-05-10T09:51:20;96310.94;;;18.03;54.89
50977;BME280;36992;48.200;12.418;2023-05-10T09:53:47;96320.00;;;18.07;53.34
50977;BME280;36992;48.200;12.418;2023-05-10T09:56:32;96313.25;;;18.17;53.97
50977;BME280;36992;48.200;12.418;2023-05-10T09:59:04;96306.31;;;18.19;53.82
50977;BME280;36992;48.200;12.418;2023-05-10T10:01:31;96307.78;;;18.17;51.45
50977;BME280;36992;48.200;12.418;2023-05-10T10:03:58;96311.84;;;18.23;51.50
50977;BME280;36992;48.200;12.418;2023-05-10T10:06:24;96307.28;;;18.27;51.97
50977;BME280;36992;48.200;12.418;2023-05-10T10:08:52;96311.22;;;18.30;52.19
50977;BME280;36992;48.200;12.418;2023-05-10T10:11:19;96309.81;;;18.36;51.25
50977;BME280;36992;48.200;12.418;2023-05-10T10:13:46;96304.09;;;18.41;51.45
50977;BME280;36992;48.200;12.418;2023-05-10T10:16:14;96308.16;;;18.47;52.22
50977;BME280;36992;48.200;12.418;2023-05-10T10:18:41;96301.97;;;18.51;52.91
50977;BME280;36992;48.200;12.418;2023-05-10T10:21:08;96300.53;;;18.57;51.33
50977;BME280;36992;48.200;12.418;2023-05-10T10:23:35;96306.53;;;18.63;52.19
50977;BME280;36992;48.200;12.418;2023-05-10T10:26:02;96304.31;;;18.68;51.24
50977;BME280;36992;48.200;12.418;2023-05-10T10:28:35;96310.00;;;18.79;51.26
50977;BME280;36992;48.200;12.418;2023-05-10T10:31:11;96299.03;;;18.95;51.27
50977;BME280;36992;48.200;12.418;2023-05-10T10:33:54;96300.91;;;18.91;50.26
50977;BME280;36992;48.200;12.418;2023-05-10T10:36:22;96295.75;;;18.86;49.40
50977;BME280;36992;48.200;12.418;2023-05-10T10:38:55;96291.59;;;18.92;50.25
50977;BME280;36992;48.200;12.418;2023-05-10T10:41:31;96297.84;;;18.93;48.14
50977;BME280;36992;48.200;12.418;2023-05-10T10:44:33;96295.63;;;18.98;48.91
50977;BME280;36992;48.200;12.418;2023-05-10T10:47:21;96301.97;;;19.03;50.66
50977;BME280;36992;48.200;12.418;2023-05-10T10:50:05;96307.44;;;19.03;52.22
50977;BME280;36992;48.200;12.418;2023-05-10T10:52:32;96300.34;;;19.01;52.57
50977;BME280;36992;48.200;12.418;2023-05-10T10:55:01;96292.28;;;19.05;52.73
50977;BME280;36992;48.200;12.418;2023-05-10T10:57:30;96302.81;;;19.07;52.71
50977;BME280;36992;48.200;12.418;2023-05-10T11:00:22;96298.31;;;19.14;52.07
50977;BME280;36992;48.200;12.418;2023-05-10T11:02:50;96289.63;;;19.09;52.15
50977;BME280;36992;48.200;12.418;2023-05-10T11:05:45;96293.66;;;19.15;52.16
50977;BME280;36992;48.200;12.418;2023-05-10T11:08:17;96291.97;;;19.10;53.02
50977;BME280;36992;48.200;12.418;2023-05-10T11:11:04;96300.97;;;19.11;52.38
50977;BME280;36992;48.200;12.418;2023-05-10T11:13:33;96296.94;;;19.05;53.82
50977;BME280;36992;48.200;12.418;2023-05-10T11:16:14;96298.94;;;19.08;53.39
50977;BME280;36992;48.200;12.418;2023-05-10T11:18:52;96300.53;;;19.09;53.38
50977;BME280;36992;48.200;12.418;2023-05-10T11:21:20;96307.84;;;19.05;54.40
50977;BME280;36992;48.200;12.418;2023-05-10T11:23:51;96306.34;;;19.07;54.17
50977;BME280;36992;48.200;12.418;2023-05-10T11:26:21;96305.13;;;19.05;54.04
50977;BME280;36992;48.200;12.418;2023-05-10T11:28:51;96305.94;;;19.05;55.61
50977;BME280;36992;48.200;12.418;2023-05-10T11:31:19;96308.66;;;19.05;54.80
50977;BME280;36992;48.200;12.418;2023-05-10T11:33:47;96318.34;;;19.03;52.88
50977;BME280;36992;48.200;12.418;2023-05-10T11:36:15;96324.47;;;18.99;52.31
50977;BME280;36992;48.200;12.418;2023-05-10T11:38:49;96323.97;;;19.10;51.39
50977;BME280;36992;48.200;12.418;2023-05-10T11:41:17;96328.13;;;18.87;52.55
50977;BME280;36992;48.200;12.418;2023-05-10T11:43:45;96333.25;;;18.73;53.03
50977;BME280;36992;48.200;12.418;2023-05-10T11:46:14;96339.97;;;18.59;53.25
50977;BME280;36992;48.200;12.418;2023-05-10T11:48:41;96340.88;;;18.47;52.41
50977;BME280;36992;48.200;12.418;2023-05-10T11:51:08;96342.53;;;18.36;53.38
50977;BME280;36992;48.200;12.418;2023-05-10T11:53:35;96345.78;;;18.26;53.07
50977;BME280;36992;48.200;12.418;2023-05-10T11:56:07;96336.75;;;18.22;52.98
50977;BME280;36992;48.200;12.418;2023-05-10T11:58:34;96343.44;;;18.08;53.24
50977;BME280;36992;48.200;12.418;2023-05-10T12:01:03;96350.69;;;18.04;53.24
50977;BME280;36992;48.200;12.418;2023-05-10T12:03:31;96342.31;;;17.97;54.08
50977;BME280;36992;48.200;12.418;2023-05-10T12:05:58;96344.59;;;17.94;53.65
50977;BME280;36992;48.200;12.418;2023-05-10T12:08:26;96346.88;;;17.92;54.33
50977;BME280;36992;48.200;12.418;2023-05-10T12:11:05;96339.84;;;17.91;55.28
50977;BME280;36992;48.200;12.418;2023-05-10T12:13:37;96345.03;;;17.97;54.73
50977;BME280;36992;48.200;12.418;2023-05-10T12:16:13;96347.06;;;18.00;54.17
50977;BME280;36992;48.200;12.418;2023-05-10T12:18:40;96341.19;;;17.98;55.30
50977;BME280;36992;48.200;12.418;2023-05-10T12:21:09;96342.84;;;18.02;54.14
50977;BME280;36992;48.200;12.418;2023-05-10T12:23:35;96344.09;;;18.05;55.24
50977;BME280;36992;48.200;12.418;2023-05-10T12:26:03;96344.19;;;18.09;54.46
50977;BME280;36992;48.200;12.418;2023-05-10T12:28:29;96349.75;;;18.12;55.14
50977;BME280;36992;48.200;12.418;2023-05-10T12:30:59;96342.88;;;18.18;54.34
50977;BME280;36992;48.200;12.418;2023-05-10T12:33:25;96346.06;;;18.20;55.40
50977;BME280;36992;48.200;12.418;2023-05-10T12:35:53;96344.22;;;18.25;55.07
50977;BME280;36992;48.200;12.418;2023-05-10T12:38:25;96353.28;;;18.29;55.21
50977;BME280;36992;48.200;12.418;2023-05-10T12:40:52;96352.47;;;18.28;54.55
50977;BME280;36992;48.200;12.418;2023-05-10T12:43:18;96352.13;;;18.30;53.99
50977;BME280;36992;48.200;12.418;2023-05-10T12:45:45;96352.56;;;18.32;54.54
50977;BME280;36992;48.200;12.418;2023-05-10T12:48:14;96357.31;;;18.35;54.01
50977;BME280;36992;48.200;12.418;2023-05-10T12:50:41;96347.56;;;18.34;53.86
50977;BME280;36992;48.200;12.418;2023-05-10T12:53:07;96341.72;;;18.36;54.28
50977;BME280;36992;48.200;12.418;2023-05-10T12:55:34;96348.41;;;18.38;53.37
50977;BME280;36992;48.200;12.418;2023-05-10T12:58:00;96352.75;;;18.39;54.74
50977;BME280;36992;48.200;12.418;2023-05-10T13:00:27;96345.00;;;18.41;54.19